Pagrindinis puslapis
METAR-TAF:

METAR-TAF

Oro uostai :

Mykonos, Graikija

platuma: 37-26-09N, ilguma: 025-20-45E, Aukštis: 123 m

Dabartinis oras

Ataskaita buvo paskelbta 11 minutes, ne 18:50 UTC
Vėjas 13 kt iš Šiaurės
Temperatūra 22°C
Drėgmė 57%
Slėgis 1016 hPa
Matomumas 10 km arba daugiau
nėra debesų žemiau 1500 m ir nėra kamuolinių lietaus debesų

METAR: LGMK 151850Z 36013KT CAVOK 22/13 Q1016

Laikas: 22:01 (19:01 UTC)

Prognozė

Ataskaita buvo paskelbta 2 valandos ir 1 minutes, ne 17:00 UTC
Prognozė galioja nuo 15 metu 18 UTC su 16 metu 03 UTC
Vėjas 23 kt iš Šiaurės su gūsio iki 33 kt
Matomumas 10 km arba daugiau
Mažai debesys ne aukštis 1800 ft
Tapsmas
nuo 15 metu 20 UTC su 15 metu 22 UTC
Vėjas 20 kt iš Šiaurės

TAF: LGMK 151700Z 1518/1603 36023G33KT 9999 FEW018 BECMG 1520/1522 36020KT

Orai ataskaitas ir orų prognozės (METAR, TAF).

turimą stotys yra geltonos ir raudonos taškus žemėlapyje.

Perkelti pele per norėdami pamatyti stoties vardą.

Tada spustelėkite, norėdami matyti oro stebėjimo ir prognozės.

Norėdami pakeisti žemėlapį: spustelėkite ant žalios mygtukų su juodo kryžiaus žemyn,; žalią mygtuką su brūkšneliu, jei norite nutolinti; arba žalių rodyklių gretimoms žemėlapius.


METAR-TAF: